sensor_id;sensor_type;location;lat;lon;timestamp;temperature;humidity
34145;HTU21D;69555;53.014;8.886;2023-05-10T00:00:30;16.31;52.49
34145;HTU21D;69555;53.014;8.886;2023-05-10T00:02:58;16.52;52.69
34145;HTU21D;69555;53.014;8.886;2023-05-10T00:05:25;16.70;52.69
34145;HTU21D;69555;53.014;8.886;2023-05-10T00:07:51;16.25;54.21
34145;HTU21D;69555;53.014;8.886;2023-05-10T00:10:18;15.82;55.60
34145;HTU21D;69555;53.014;8.886;2023-05-10T00:12:44;15.66;56.48
34145;HTU21D;69555;53.014;8.886;2023-05-10T00:15:11;15.96;55.74
34145;HTU21D;69555;53.014;8.886;2023-05-10T00:17:37;16.45;54.69
34145;HTU21D;69555;53.014;8.886;2023-05-10T00:20:04;15.77;55.37
34145;HTU21D;69555;53.014;8.886;2023-05-10T00:22:32;15.51;55.56
34145;HTU21D;69555;53.014;8.886;2023-05-10T00:24:59;15.54;56.55
34145;HTU21D;69555;53.014;8.886;2023-05-10T00:27:25;15.66;56.52
34145;HTU21D;69555;53.014;8.886;2023-05-10T00:29:52;15.41;56.19
34145;HTU21D;69555;53.014;8.886;2023-05-10T00:32:18;15.38;55.21
34145;HTU21D;69555;53.014;8.886;2023-05-10T00:34:46;15.47;55.07
34145;HTU21D;69555;53.014;8.886;2023-05-10T00:37:13;15.34;56.10
34145;HTU21D;69555;53.014;8.886;2023-05-10T00:39:40;15.83;55.03
34145;HTU21D;69555;53.014;8.886;2023-05-10T00:42:06;15.49;55.96
34145;HTU21D;69555;53.014;8.886;2023-05-10T00:44:33;15.33;55.43
34145;HTU21D;69555;53.014;8.886;2023-05-10T00:46:59;15.75;54.49
34145;HTU21D;69555;53.014;8.886;2023-05-10T00:49:27;16.30;53.36
34145;HTU21D;69555;53.014;8.886;2023-05-10T00:51:54;15.85;54.49
34145;HTU21D;69555;53.014;8.886;2023-05-10T00:54:21;15.63;54.74
34145;HTU21D;69555;53.014;8.886;2023-05-10T00:56:48;15.25;56.21
34145;HTU21D;69555;53.014;8.886;2023-05-10T00:59:16;15.46;56.08
34145;HTU21D;69555;53.014;8.886;2023-05-10T01:01:44;15.42;56.26
34145;HTU21D;69555;53.014;8.886;2023-05-10T01:04:12;15.19;56.03
34145;HTU21D;69555;53.014;8.886;2023-05-10T01:06:40;14.85;56.86
34145;HTU21D;69555;53.014;8.886;2023-05-10T01:09:06;14.96;56.55
34145;HTU21D;69555;53.014;8.886;2023-05-10T01:11:35;15.00;57.80
34145;HTU21D;69555;53.014;8.886;2023-05-10T01:14:03;15.22;57.69
34145;HTU21D;69555;53.014;8.886;2023-05-10T01:16:34;15.12;58.32
34145;HTU21D;69555;53.014;8.886;2023-05-10T01:19:04;15.27;58.01
34145;HTU21D;69555;53.014;8.886;2023-05-10T01:34:09;15.80;55.23
34145;HTU21D;69555;53.014;8.886;2023-05-10T01:36:50;15.55;56.37
34145;HTU21D;69555;53.014;8.886;2023-05-10T01:39:36;15.27;56.64
34145;HTU21D;69555;53.014;8.886;2023-05-10T01:42:23;15.55;55.81
34145;HTU21D;69555;53.014;8.886;2023-05-10T01:47:43;15.43;56.07
34145;HTU21D;69555;53.014;8.886;2023-05-10T01:50:17;15.12;57.21
34145;HTU21D;69555;53.014;8.886;2023-05-10T01:52:53;15.01;57.74
34145;HTU21D;69555;53.014;8.886;2023-05-10T01:55:22;15.00;56.95
34145;HTU21D;69555;53.014;8.886;2023-05-10T01:57:54;14.66;58.73
34145;HTU21D;69555;53.014;8.886;2023-05-10T02:00:24;14.65;57.98
34145;HTU21D;69555;53.014;8.886;2023-05-10T02:02:52;14.65;57.75
34145;HTU21D;69555;53.014;8.886;2023-05-10T02:05:19;14.42;58.09
34145;HTU21D;69555;53.014;8.886;2023-05-10T02:07:47;14.60;58.28
34145;HTU21D;69555;53.014;8.886;2023-05-10T02:10:13;14.65;57.86
34145;HTU21D;69555;53.014;8.886;2023-05-10T02:12:47;15.00;56.67
34145;HTU21D;69555;53.014;8.886;2023-05-10T02:15:19;15.38;56.38
34145;HTU21D;69555;53.014;8.886;2023-05-10T02:17:48;15.43;56.55
34145;HTU21D;69555;53.014;8.886;2023-05-10T02:20:16;15.17;58.35
34145;HTU21D;69555;53.014;8.886;2023-05-10T02:22:44;14.93;59.12
34145;HTU21D;69555;53.014;8.886;2023-05-10T02:25:13;15.02;59.48
34145;HTU21D;69555;53.014;8.886;2023-05-10T02:27:42;14.91;59.82
34145;HTU21D;69555;53.014;8.886;2023-05-10T02:30:10;14.99;59.25
34145;HTU21D;69555;53.014;8.886;2023-05-10T02:32:38;14.52;60.35
34145;HTU21D;69555;53.014;8.886;2023-05-10T02:35:06;14.64;60.36
34145;HTU21D;69555;53.014;8.886;2023-05-10T02:37:34;14.41;60.92
34145;HTU21D;69555;53.014;8.886;2023-05-10T02:40:02;14.82;60.22
34145;HTU21D;69555;53.014;8.886;2023-05-10T02:42:35;14.50;61.19
34145;HTU21D;69555;53.014;8.886;2023-05-10T02:45:06;14.72;59.75
34145;HTU21D;69555;53.014;8.886;2023-05-10T02:47:34;14.21;62.29
34145;HTU21D;69555;53.014;8.886;2023-05-10T02:50:01;14.35;62.44
34145;HTU21D;69555;53.014;8.886;2023-05-10T02:52:30;14.52;63.17
34145;HTU21D;69555;53.014;8.886;2023-05-10T02:55:03;14.80;62.60
34145;HTU21D;69555;53.014;8.886;2023-05-10T02:57:35;14.97;62.05
34145;HTU21D;69555;53.014;8.886;2023-05-10T03:00:05;14.80;62.34
34145;HTU21D;69555;53.014;8.886;2023-05-10T03:02:31;14.51;63.42
34145;HTU21D;69555;53.014;8.886;2023-05-10T03:04:57;14.14;64.81
34145;HTU21D;69555;53.014;8.886;2023-05-10T03:07:23;14.15;63.84
34145;HTU21D;69555;53.014;8.886;2023-05-10T03:09:50;13.83;64.57
34145;HTU21D;69555;53.014;8.886;2023-05-10T03:15:37;13.58;65.67
34145;HTU21D;69555;53.014;8.886;2023-05-10T03:18:20;13.68;65.46
34145;HTU21D;69555;53.014;8.886;2023-05-10T03:21:01;13.51;65.90
34145;HTU21D;69555;53.014;8.886;2023-05-10T03:24:08;13.44;65.58
34145;HTU21D;69555;53.014;8.886;2023-05-10T03:26:36;13.30;66.12
34145;HTU21D;69555;53.014;8.886;2023-05-10T03:29:04;13.45;65.76
34145;HTU21D;69555;53.014;8.886;2023-05-10T03:31:32;13.37;66.08
34145;HTU21D;69555;53.014;8.886;2023-05-10T03:33:59;13.58;66.09
34145;HTU21D;69555;53.014;8.886;2023-05-10T03:36:26;13.47;66.04
34145;HTU21D;69555;53.014;8.886;2023-05-10T03:38:53;13.51;65.96
34145;HTU21D;69555;53.014;8.886;2023-05-10T03:41:19;13.62;65.73
34145;HTU21D;69555;53.014;8.886;2023-05-10T03:43:46;13.93;65.30
34145;HTU21D;69555;53.014;8.886;2023-05-10T03:46:13;14.44;63.70
34145;HTU21D;69555;53.014;8.886;2023-05-10T03:48:40;14.60;63.39
34145;HTU21D;69555;53.014;8.886;2023-05-10T03:51:07;14.63;63.65
34145;HTU21D;69555;53.014;8.886;2023-05-10T03:53:34;14.50;64.28
34145;HTU21D;69555;53.014;8.886;2023-05-10T03:56:00;14.44;65.08
34145;HTU21D;69555;53.014;8.886;2023-05-10T03:58:27;14.62;64.83
34145;HTU21D;69555;53.014;8.886;2023-05-10T04:00:53;14.44;66.27
34145;HTU21D;69555;53.014;8.886;2023-05-10T04:03:20;14.12;67.59
34145;HTU21D;69555;53.014;8.886;2023-05-10T04:05:45;13.65;69.39
34145;HTU21D;69555;53.014;8.886;2023-05-10T04:08:12;13.80;68.01
34145;HTU21D;69555;53.014;8.886;2023-05-10T04:10:37;13.76;67.87
34145;HTU21D;69555;53.014;8.886;2023-05-10T04:13:03;13.65;68.34
34145;HTU21D;69555;53.014;8.886;2023-05-10T04:15:28;14.01;68.04
34145;HTU21D;69555;53.014;8.886;2023-05-10T04:17:54;13.40;70.02
34145;HTU21D;69555;53.014;8.886;2023-05-10T04:20:19;13.24;70.28
34145;HTU21D;69555;53.014;8.886;2023-05-10T04:22:45;13.29;70.28
34145;HTU21D;69555;53.014;8.886;2023-05-10T04:25:10;13.68;68.79
34145;HTU21D;69555;53.014;8.886;2023-05-10T04:27:36;13.84;68.31
34145;HTU21D;69555;53.014;8.886;2023-05-10T04:30:02;13.95;68.12
34145;HTU21D;69555;53.014;8.886;2023-05-10T04:32:27;13.71;69.33
34145;HTU21D;69555;53.014;8.886;2023-05-10T04:34:53;13.86;69.45
34145;HTU21D;69555;53.014;8.886;2023-05-10T04:37:18;14.23;68.83
34145;HTU21D;69555;53.014;8.886;2023-05-10T04:39:45;14.40;70.44
34145;HTU21D;69555;53.014;8.886;2023-05-10T04:42:10;14.07;69.23
34145;HTU21D;69555;53.014;8.886;2023-05-10T04:44:36;13.82;69.77
34145;HTU21D;69555;53.014;8.886;2023-05-10T04:47:02;14.01;68.39
34145;HTU21D;69555;53.014;8.886;2023-05-10T04:49:28;13.65;70.68
34145;HTU21D;69555;53.014;8.886;2023-05-10T04:51:54;13.44;71.26
34145;HTU21D;69555;53.014;8.886;2023-05-10T04:54:20;13.36;72.67
34145;HTU21D;69555;53.014;8.886;2023-05-10T04:56:45;13.19;73.86
34145;HTU21D;69555;53.014;8.886;2023-05-10T04:59:11;13.53;72.65
34145;HTU21D;69555;53.014;8.886;2023-05-10T05:01:36;14.00;70.96
34145;HTU21D;69555;53.014;8.886;2023-05-10T05:04:01;13.71;72.61
34145;HTU21D;69555;53.014;8.886;2023-05-10T05:06:27;13.55;73.24
34145;HTU21D;69555;53.014;8.886;2023-05-10T05:08:52;13.48;76.21
34145;HTU21D;69555;53.014;8.886;2023-05-10T05:11:18;13.40;76.76
34145;HTU21D;69555;53.014;8.886;2023-05-10T05:13:44;12.86;79.07
34145;HTU21D;69555;53.014;8.886;2023-05-10T05:16:09;12.89;80.23
34145;HTU21D;69555;53.014;8.886;2023-05-10T05:18:35;13.03;78.46
34145;HTU21D;69555;53.014;8.886;2023-05-10T05:21:01;13.23;78.91
34145;HTU21D;69555;53.014;8.886;2023-05-10T05:23:26;13.06;79.12
34145;HTU21D;69555;53.014;8.886;2023-05-10T05:25:52;12.91;80.98
34145;HTU21D;69555;53.014;8.886;2023-05-10T05:28:19;13.03;77.87
34145;HTU21D;69555;53.014;8.886;2023-05-10T05:30:44;13.16;78.79
34145;HTU21D;69555;53.014;8.886;2023-05-10T05:33:10;12.89;80.24
34145;HTU21D;69555;53.014;8.886;2023-05-10T05:35:35;12.87;80.34
34145;HTU21D;69555;53.014;8.886;2023-05-10T05:38:01;12.69;80.65
34145;HTU21D;69555;53.014;8.886;2023-05-10T05:40:26;12.78;80.30
34145;HTU21D;69555;53.014;8.886;2023-05-10T05:42:52;12.96;80.58
34145;HTU21D;69555;53.014;8.886;2023-05-10T05:45:17;12.62;81.49
34145;HTU21D;69555;53.014;8.886;2023-05-10T05:47:42;12.69;80.61
34145;HTU21D;69555;53.014;8.886;2023-05-10T05:50:08;12.64;81.27
34145;HTU21D;69555;53.014;8.886;2023-05-10T05:52:34;12.48;82.87
34145;HTU21D;69555;53.014;8.886;2023-05-10T05:54:59;12.50;83.39
34145;HTU21D;69555;53.014;8.886;2023-05-10T05:57:25;12.36;84.26
34145;HTU21D;69555;53.014;8.886;2023-05-10T05:59:51;12.42;84.16
34145;HTU21D;69555;53.014;8.886;2023-05-10T06:02:17;12.79;82.87
34145;HTU21D;69555;53.014;8.886;2023-05-10T06:04:42;12.04;85.58
34145;HTU21D;69555;53.014;8.886;2023-05-10T06:07:08;11.97;87.03
34145;HTU21D;69555;53.014;8.886;2023-05-10T06:09:33;11.91;87.11
34145;HTU21D;69555;53.014;8.886;2023-05-10T06:11:58;11.76;87.68
34145;HTU21D;69555;53.014;8.886;2023-05-10T06:14:24;11.71;88.79
34145;HTU21D;69555;53.014;8.886;2023-05-10T06:16:49;12.18;87.48
34145;HTU21D;69555;53.014;8.886;2023-05-10T06:19:15;12.43;86.22
34145;HTU21D;69555;53.014;8.886;2023-05-10T06:21:40;12.37;86.61
34145;HTU21D;69555;53.014;8.886;2023-05-10T06:24:06;12.65;85.93
34145;HTU21D;69555;53.014;8.886;2023-05-10T06:26:32;12.90;85.90
34145;HTU21D;69555;53.014;8.886;2023-05-10T06:28:57;12.52;87.32
34145;HTU21D;69555;53.014;8.886;2023-05-10T06:31:23;12.35;88.88
34145;HTU21D;69555;53.014;8.886;2023-05-10T06:33:48;12.34;89.64
34145;HTU21D;69555;53.014;8.886;2023-05-10T06:36:14;12.45;89.59
34145;HTU21D;69555;53.014;8.886;2023-05-10T06:38:39;12.23;90.15
34145;HTU21D;69555;53.014;8.886;2023-05-10T06:41:05;12.14;90.99
34145;HTU21D;69555;53.014;8.886;2023-05-10T06:43:30;12.32;90.37
34145;HTU21D;69555;53.014;8.886;2023-05-10T06:45:56;12.55;88.61
34145;HTU21D;69555;53.014;8.886;2023-05-10T06:48:23;12.73;88.53
34145;HTU21D;69555;53.014;8.886;2023-05-10T06:50:50;12.26;91.09
34145;HTU21D;69555;53.014;8.886;2023-05-10T06:53:16;11.83;93.83
34145;HTU21D;69555;53.014;8.886;2023-05-10T06:55:43;11.92;93.14
34145;HTU21D;69555;53.014;8.886;2023-05-10T06:58:10;11.94;94.00
34145;HTU21D;69555;53.014;8.886;2023-05-10T07:00:36;11.98;93.55
34145;HTU21D;69555;53.014;8.886;2023-05-10T07:03:06;12.33;92.23
34145;HTU21D;69555;53.014;8.886;2023-05-10T07:05:32;12.31;91.69
34145;HTU21D;69555;53.014;8.886;2023-05-10T07:07:57;12.44;89.41
34145;HTU21D;69555;53.014;8.886;2023-05-10T07:10:23;12.56;89.49
34145;HTU21D;69555;53.014;8.886;2023-05-10T07:12:48;12.33;90.46
34145;HTU21D;69555;53.014;8.886;2023-05-10T07:15:16;12.90;88.44
34145;HTU21D;69555;53.014;8.886;2023-05-10T07:17:43;12.74;89.12
34145;HTU21D;69555;53.014;8.886;2023-05-10T07:20:08;13.14;87.77
34145;HTU21D;69555;53.014;8.886;2023-05-10T07:22:34;13.31;87.54
34145;HTU21D;69555;53.014;8.886;2023-05-10T07:24:59;13.49;87.17
34145;HTU21D;69555;53.014;8.886;2023-05-10T07:27:25;13.52;87.07
34145;HTU21D;69555;53.014;8.886;2023-05-10T07:29:50;13.40;88.28
34145;HTU21D;69555;53.014;8.886;2023-05-10T07:32:16;13.58;88.16
34145;HTU21D;69555;53.014;8.886;2023-05-10T07:34:41;13.51;87.73
34145;HTU21D;69555;53.014;8.886;2023-05-10T07:37:06;13.60;87.60
34145;HTU21D;69555;53.014;8.886;2023-05-10T07:39:32;14.00;85.76
34145;HTU21D;69555;53.014;8.886;2023-05-10T07:41:58;14.36;84.22
34145;HTU21D;69555;53.014;8.886;2023-05-10T07:44:23;14.50;85.03
34145;HTU21D;69555;53.014;8.886;2023-05-10T07:46:49;14.53;84.81
34145;HTU21D;69555;53.014;8.886;2023-05-10T07:49:14;13.94;88.23
34145;HTU21D;69555;53.014;8.886;2023-05-10T07:51:41;14.67;84.29
34145;HTU21D;69555;53.014;8.886;2023-05-10T07:54:08;15.26;82.49
34145;HTU21D;69555;53.014;8.886;2023-05-10T07:56:35;15.47;82.33
34145;HTU21D;69555;53.014;8.886;2023-05-10T07:59:03;15.39;82.52
34145;HTU21D;69555;53.014;8.886;2023-05-10T08:01:35;15.58;83.58
34145;HTU21D;69555;53.014;8.886;2023-05-10T08:04:02;16.31;81.25
34145;HTU21D;69555;53.014;8.886;2023-05-10T08:06:29;16.33;81.44
34145;HTU21D;69555;53.014;8.886;2023-05-10T08:08:56;16.31;82.78
34145;HTU21D;69555;53.014;8.886;2023-05-10T08:11:23;15.65;85.73
34145;HTU21D;69555;53.014;8.886;2023-05-10T08:13:50;15.61;86.44
34145;HTU21D;69555;53.014;8.886;2023-05-10T08:16:17;15.16;88.31
34145;HTU21D;69555;53.014;8.886;2023-05-10T08:18:45;15.23;89.45
34145;HTU21D;69555;53.014;8.886;2023-05-10T08:21:14;15.57;87.19
34145;HTU21D;69555;53.014;8.886;2023-05-10T08:23:40;15.24;85.62
34145;HTU21D;69555;53.014;8.886;2023-05-10T08:26:07;15.57;86.58
34145;HTU21D;69555;53.014;8.886;2023-05-10T08:28:34;15.34;87.93
34145;HTU21D;69555;53.014;8.886;2023-05-10T08:31:00;15.55;87.88
34145;HTU21D;69555;53.014;8.886;2023-05-10T08:33:27;15.84;85.44
34145;HTU21D;69555;53.014;8.886;2023-05-10T08:35:53;15.48;88.12
34145;HTU21D;69555;53.014;8.886;2023-05-10T08:38:20;16.17;84.90
34145;HTU21D;69555;53.014;8.886;2023-05-10T08:40:49;16.19;85.23
34145;HTU21D;69555;53.014;8.886;2023-05-10T08:43:17;16.27;82.22
34145;HTU21D;69555;53.014;8.886;2023-05-10T08:45:44;16.37;82.91
34145;HTU21D;69555;53.014;8.886;2023-05-10T08:48:14;16.16;83.13
34145;HTU21D;69555;53.014;8.886;2023-05-10T08:50:44;16.15;84.03
34145;HTU21D;69555;53.014;8.886;2023-05-10T08:53:13;17.08;80.97
34145;HTU21D;69555;53.014;8.886;2023-05-10T08:55:41;16.07;82.81
34145;HTU21D;69555;53.014;8.886;2023-05-10T08:58:09;16.27;82.33
34145;HTU21D;69555;53.014;8.886;2023-05-10T09:00:36;15.89;82.80
34145;HTU21D;69555;53.014;8.886;2023-05-10T09:03:05;15.40;85.34
34145;HTU21D;69555;53.014;8.886;2023-05-10T09:05:31;15.73;84.57
34145;HTU21D;69555;53.014;8.886;2023-05-10T09:07:57;16.10;84.52
34145;HTU21D;69555;53.014;8.886;2023-05-10T09:10:26;16.41;81.20
34145;HTU21D;69555;53.014;8.886;2023-05-10T09:12:53;17.04;78.97
34145;HTU21D;69555;53.014;8.886;2023-05-10T09:15:21;16.79;78.24
34145;HTU21D;69555;53.014;8.886;2023-05-10T09:17:47;17.49;77.02
34145;HTU21D;69555;53.014;8.886;2023-05-10T09:20:14;17.43;75.51
34145;HTU21D;69555;53.014;8.886;2023-05-10T09:22:39;17.39;75.59
34145;HTU21D;69555;53.014;8.886;2023-05-10T09:25:09;17.21;75.49
34145;HTU21D;69555;53.014;8.886;2023-05-10T09:27:36;16.94;79.43
34145;HTU21D;69555;53.014;8.886;2023-05-10T09:30:03;16.92;75.32
34145;HTU21D;69555;53.014;8.886;2023-05-10T09:32:43;16.82;77.00
34145;HTU21D;69555;53.014;8.886;2023-05-10T09:35:17;16.88;78.41
34145;HTU21D;69555;53.014;8.886;2023-05-10T09:37:44;17.15;77.84
34145;HTU21D;69555;53.014;8.886;2023-05-10T09:40:12;16.56;79.95
34145;HTU21D;69555;53.014;8.886;2023-05-10T09:42:38;16.39;79.78
34145;HTU21D;69555;53.014;8.886;2023-05-10T09:45:04;16.47;81.77
34145;HTU21D;69555;53.014;8.886;2023-05-10T09:47:36;16.13;80.81
34145;HTU21D;69555;53.014;8.886;2023-05-10T09:50:03;16.45;80.99
34145;HTU21D;69555;53.014;8.886;2023-05-10T09:52:49;16.49;81.38
34145;HTU21D;69555;53.014;8.886;2023-05-10T09:55:16;16.66;79.58
34145;HTU21D;69555;53.014;8.886;2023-05-10T09:57:43;17.39;77.66
34145;HTU21D;69555;53.014;8.886;2023-05-10T10:00:08;18.40;74.33
34145;HTU21D;69555;53.014;8.886;2023-05-10T10:02:38;17.83;75.17
34145;HTU21D;69555;53.014;8.886;2023-05-10T10:05:06;18.56;72.80
34145;HTU21D;69555;53.014;8.886;2023-05-10T10:07:32;18.44;73.19
34145;HTU21D;69555;53.014;8.886;2023-05-10T10:09:58;18.65;73.21
34145;HTU21D;69555;53.014;8.886;2023-05-10T10:12:25;17.74;74.72
34145;HTU21D;69555;53.014;8.886;2023-05-10T10:14:52;17.68;74.38
34145;HTU21D;69555;53.014;8.886;2023-05-10T10:17:20;17.68;75.08
34145;HTU21D;69555;53.014;8.886;2023-05-10T10:19:48;16.32;81.65
34145;HTU21D;69555;53.014;8.886;2023-05-10T10:22:15;15.77;83.90
34145;HTU21D;69555;53.014;8.886;2023-05-10T10:24:41;15.73;84.25
34145;HTU21D;69555;53.014;8.886;2023-05-10T10:36:04;16.06;85.47
34145;HTU21D;69555;53.014;8.886;2023-05-10T10:38:57;16.60;82.01
34145;HTU21D;69555;53.014;8.886;2023-05-10T10:41:35;16.92;81.65
34145;HTU21D;69555;53.014;8.886;2023-05-10T10:44:28;17.47;76.82
34145;HTU21D;69555;53.014;8.886;2023-05-10T10:50:08;17.46;77.57
34145;HTU21D;69555;53.014;8.886;2023-05-10T10:55:16;17.66;79.03
34145;HTU21D;69555;53.014;8.886;2023-05-10T10:57:53;17.29;79.06
34145;HTU21D;69555;53.014;8.886;2023-05-10T11:00:33;17.01;79.19
34145;HTU21D;69555;53.014;8.886;2023-05-10T11:03:14;16.35;80.90
34145;HTU21D;69555;53.014;8.886;2023-05-10T11:05:48;16.11;81.72
34145;HTU21D;69555;53.014;8.886;2023-05-10T11:08:27;16.31;81.94
34145;HTU21D;69555;53.014;8.886;2023-05-10T11:13:29;16.39;81.46
34145;HTU21D;69555;53.014;8.886;2023-05-10T11:15:55;16.43;82.20
34145;HTU21D;69555;53.014;8.886;2023-05-10T11:18:27;16.69;79.73
34145;HTU21D;69555;53.014;8.886;2023-05-10T11:21:00;17.22;79.11
34145;HTU21D;69555;53.014;8.886;2023-05-10T11:26:13;17.46;76.26
34145;HTU21D;69555;53.014;8.886;2023-05-10T11:28:42;17.48;77.29
34145;HTU21D;69555;53.014;8.886;2023-05-10T11:31:08;17.58;75.57
34145;HTU21D;69555;53.014;8.886;2023-05-10T11:33:54;17.60;74.55
34145;HTU21D;69555;53.014;8.886;2023-05-10T11:36:22;18.27;72.15
34145;HTU21D;69555;53.014;8.886;2023-05-10T11:38:48;18.49;74.02
34145;HTU21D;69555;53.014;8.886;2023-05-10T11:41:15;18.13;73.54
34145;HTU21D;69555;53.014;8.886;2023-05-10T11:43:42;18.42;73.78
34145;HTU21D;69555;53.014;8.886;2023-05-10T11:46:10;18.70;72.54
34145;HTU21D;69555;53.014;8.886;2023-05-10T11:48:38;18.91;70.90
34145;HTU21D;69555;53.014;8.886;2023-05-10T11:51:03;18.92;69.59
34145;HTU21D;69555;53.014;8.886;2023-05-10T11:53:30;19.20;71.56
34145;HTU21D;69555;53.014;8.886;2023-05-10T11:56:06;18.71;71.69
34145;HTU21D;69555;53.014;8.886;2023-05-10T11:58:33;19.05;70.67
34145;HTU21D;69555;53.014;8.886;2023-05-10T12:00:59;18.67;71.58
34145;HTU21D;69555;53.014;8.886;2023-05-10T12:03:25;17.89;75.05
34145;HTU21D;69555;53.014;8.886;2023-05-10T12:05:50;17.90;75.50
34145;HTU21D;69555;53.014;8.886;2023-05-10T12:08:29;17.94;74.87
34145;HTU21D;69555;53.014;8.886;2023-05-10T12:11:08;17.26;77.99
34145;HTU21D;69555;53.014;8.886;2023-05-10T12:13:39;17.06;79.65
34145;HTU21D;69555;53.014;8.886;2023-05-10T12:16:25;16.71;82.17
34145;HTU21D;69555;53.014;8.886;2023-05-10T12:18:51;16.14;84.59
34145;HTU21D;69555;53.014;8.886;2023-05-10T12:21:18;15.98;85.90
34145;HTU21D;69555;53.014;8.886;2023-05-10T12:23:46;16.26;84.37
34145;HTU21D;69555;53.014;8.886;2023-05-10T12:26:12;16.27;84.48
34145;HTU21D;69555;53.014;8.886;2023-05-10T12:28:37;16.44;85.06
34145;HTU21D;69555;53.014;8.886;2023-05-10T12:31:05;17.02;82.75
34145;HTU21D;69555;53.014;8.886;2023-05-10T12:33:42;17.05;83.15
34145;HTU21D;69555;53.014;8.886;2023-05-10T12:36:09;16.80;82.01
34145;HTU21D;69555;53.014;8.886;2023-05-10T12:38:39;16.62;83.70
34145;HTU21D;69555;53.014;8.886;2023-05-10T12:41:11;16.33;84.70
34145;HTU21D;69555;53.014;8.886;2023-05-10T12:43:38;16.52;83.90
34145;HTU21D;69555;53.014;8.886;2023-05-10T12:46:08;16.63;81.80
34145;HTU21D;69555;53.014;8.886;2023-05-10T12:48:35;16.99;80.88
34145;HTU21D;69555;53.014;8.886;2023-05-10T12:51:01;16.88;80.67
34145;HTU21D;69555;53.014;8.886;2023-05-10T12:53:27;17.17;82.28
34145;HTU21D;69555;53.014;8.886;2023-05-10T12:55:52;17.73;77.02
34145;HTU21D;69555;53.014;8.886;2023-05-10T12:58:19;17.80;78.56
34145;HTU21D;69555;53.014;8.886;2023-05-10T13:00:45;18.04;77.76
34145;HTU21D;69555;53.014;8.886;2023-05-10T13:03:10;17.48;76.92
34145;HTU21D;69555;53.014;8.886;2023-05-10T13:05:36;17.37;78.04
34145;HTU21D;69555;53.014;8.886;2023-05-10T13:08:02;17.38;76.44
34145;HTU21D;69555;53.014;8.886;2023-05-10T13:10:29;17.53;76.73
34145;HTU21D;69555;53.014;8.886;2023-05-10T13:12:55;18.00;75.22
34145;HTU21D;69555;53.014;8.886;2023-05-10T13:15:20;17.93;75.38
34145;HTU21D;69555;53.014;8.886;2023-05-10T13:17:46;17.91;74.44
34145;HTU21D;69555;53.014;8.886;2023-05-10T13:20:11;17.34;77.24
34145;HTU21D;69555;53.014;8.886;2023-05-10T13:22:37;17.32;76.17
34145;HTU21D;69555;53.014;8.886;2023-05-10T13:25:02;17.22;77.00
34145;HTU21D;69555;53.014;8.886;2023-05-10T13:27:28;17.21;77.29
34145;HTU21D;69555;53.014;8.886;2023-05-10T13:29:54;17.61;76.80
34145;HTU21D;69555;53.014;8.886;2023-05-10T13:32:20;17.55;77.63
34145;HTU21D;69555;53.014;8.886;2023-05-10T13:34:45;17.37;79.63
34145;HTU21D;69555;53.014;8.886;2023-05-10T13:37:11;17.29;79.13
34145;HTU21D;69555;53.014;8.886;2023-05-10T13:39:36;17.14;82.11
34145;HTU21D;69555;53.014;8.886;2023-05-10T13:42:03;17.25;80.46
34145;HTU21D;69555;53.014;8.886;2023-05-10T13:44:29;17.33;80.73
34145;HTU21D;69555;53.014;8.886;2023-05-10T13:46:54;17.37;79.55
34145;HTU21D;69555;53.014;8.886;2023-05-10T13:49:20;17.41;78.43
34145;HTU21D;69555;53.014;8.886;2023-05-10T13:51:46;17.09;78.10
34145;HTU21D;69555;53.014;8.886;2023-05-10T13:54:12;17.76;78.29
34145;HTU21D;69555;53.014;8.886;2023-05-10T13:56:37;17.54;75.72
34145;HTU21D;69555;53.014;8.886;2023-05-10T13:59:02;17.83;75.86
34145;HTU21D;69555;53.014;8.886;2023-05-10T14:01:28;18.05;74.41
34145;HTU21D;69555;53.014;8.886;2023-05-10T14:03:55;17.90;75.85
34145;HTU21D;69555;53.014;8.886;2023-05-10T14:06:22;17.87;75.08
34145;HTU21D;69555;53.014;8.886;2023-05-10T14:08:47;18.09;73.56
34145;HTU21D;69555;53.014;8.886;2023-05-10T14:11:12;17.55;75.70
34145;HTU21D;69555;53.014;8.886;2023-05-10T14:13:38;17.68;74.04
34145;HTU21D;69555;53.014;8.886;2023-05-10T14:16:04;17.99;72.96
34145;HTU21D;69555;53.014;8.886;2023-05-10T14:18:29;17.98;73.42
34145;HTU21D;69555;53.014;8.886;2023-05-10T14:20:55;17.88;71.86
34145;HTU21D;69555;53.014;8.886;2023-05-10T14:23:22;18.47;71.91
34145;HTU21D;69555;53.014;8.886;2023-05-10T14:25:51;18.78;70.78
34145;HTU21D;69555;53.014;8.886;2023-05-10T14:28:17;18.81;70.31
34145;HTU21D;69555;53.014;8.886;2023-05-10T14:30:46;18.96;70.45
34145;HTU21D;69555;53.014;8.886;2023-05-10T14:33:11;18.63;70.93
34145;HTU21D;69555;53.014;8.886;2023-05-10T14:35:37;19.33;68.54
34145;HTU21D;69555;53.014;8.886;2023-05-10T14:38:03;19.63;66.61
34145;HTU21D;69555;53.014;8.886;2023-05-10T14:40:29;19.27;70.61
34145;HTU21D;69555;53.014;8.886;2023-05-10T14:42:54;18.86;70.66
34145;HTU21D;69555;53.014;8.886;2023-05-10T14:45:20;18.68;70.12
34145;HTU21D;69555;53.014;8.886;2023-05-10T14:47:46;18.69;70.52
34145;HTU21D;69555;53.014;8.886;2023-05-10T14:50:11;19.12;69.30
34145;HTU21D;69555;53.014;8.886;2023-05-10T14:52:37;18.96;68.48
34145;HTU21D;69555;53.014;8.886;2023-05-10T14:55:02;18.98;69.03
34145;HTU21D;69555;53.014;8.886;2023-05-10T14:57:28;18.68;70.86
34145;HTU21D;69555;53.014;8.886;2023-05-10T14:59:55;19.23;67.37
34145;HTU21D;69555;53.014;8.886;2023-05-10T15:02:21;19.75;66.03
34145;HTU21D;69555;53.014;8.886;2023-05-10T15:04:46;20.13;65.72
34145;HTU21D;69555;53.014;8.886;2023-05-10T15:07:12;19.46;67.64
34145;HTU21D;69555;53.014;8.886;2023-05-10T15:09:39;19.48;68.07
34145;HTU21D;69555;53.014;8.886;2023-05-10T15:12:05;19.67;66.92
34145;HTU21D;69555;53.014;8.886;2023-05-10T15:14:30;19.43;66.55
34145;HTU21D;69555;53.014;8.886;2023-05-10T15:16:56;19.66;66.39
34145;HTU21D;69555;53.014;8.886;2023-05-10T15:19:21;19.10;68.09
34145;HTU21D;69555;53.014;8.886;2023-05-10T15:21:47;18.84;71.64
34145;HTU21D;69555;53.014;8.886;2023-05-10T15:24:13;19.17;69.74
34145;HTU21D;69555;53.014;8.886;2023-05-10T15:26:38;19.05;69.84
34145;HTU21D;69555;53.014;8.886;2023-05-10T15:29:03;18.91;69.63
34145;HTU21D;69555;53.014;8.886;2023-05-10T15:31:29;19.28;69.20
34145;HTU21D;69555;53.014;8.886;2023-05-10T15:33:58;19.07;68.34
34145;HTU21D;69555;53.014;8.886;2023-05-10T15:36:26;18.78;68.96
34145;HTU21D;69555;53.014;8.886;2023-05-10T15:38:53;18.95;67.32
34145;HTU21D;69555;53.014;8.886;2023-05-10T15:41:19;18.73;68.78
34145;HTU21D;69555;53.014;8.886;2023-05-10T15:43:44;18.52;69.52
34145;HTU21D;69555;53.014;8.886;2023-05-10T15:46:09;18.53;70.16
34145;HTU21D;69555;53.014;8.886;2023-05-10T15:48:35;18.49;71.00
34145;HTU21D;69555;53.014;8.886;2023-05-10T15:51:00;18.58;71.93
34145;HTU21D;69555;53.014;8.886;2023-05-10T15:53:26;18.47;70.62
34145;HTU21D;69555;53.014;8.886;2023-05-10T15:55:54;18.73;69.24